Terminal Aerodrome Forecast
Issued by NWS Tallahassee, FL

Home | Current Version | Previous Version | Text Only | Print | Product List | Glossary On
Versions: 1 2 3 4 5 6 7 8 9 10 11 12 13 14 15 16 17 18 19
000
FTUS42 KTAE 180521
TAFTLH
TAF
KTLH 180521Z 1806/1906 00000KT 1SM BR OVC002
     FM180800 00000KT 1/2SM FG OVC001
      TEMPO 1810/1812 1/4SM FG
     FM181400 24006KT P6SM SCT002 BKN020
     FM181700 22006KT P6SM BKN050
     FM190300 00000KT 4SM BR BKN025=

USA.gov is the U.S. government's official web portal to all federal, state and local government web resources and services.